sensor_id;sensor_type;location;lat;lon;timestamp;temperature;humidity
18541;DHT22;9400;50.924;5.328;2023-02-10T00:01:21;3.90;99.90
18541;DHT22;9400;50.924;5.328;2023-02-10T00:03:49;4.00;99.90
18541;DHT22;9400;50.924;5.328;2023-02-10T00:06:17;4.00;99.90
18541;DHT22;9400;50.924;5.328;2023-02-10T00:08:46;4.00;99.90
18541;DHT22;9400;50.924;5.328;2023-02-10T00:11:14;4.00;99.90
18541;DHT22;9400;50.924;5.328;2023-02-10T00:13:50;4.00;99.90
18541;DHT22;9400;50.924;5.328;2023-02-10T00:16:18;4.10;99.90
18541;DHT22;9400;50.924;5.328;2023-02-10T00:18:45;4.30;99.90
18541;DHT22;9400;50.924;5.328;2023-02-10T00:21:14;4.40;99.90
18541;DHT22;9400;50.924;5.328;2023-02-10T00:23:42;4.40;99.90
18541;DHT22;9400;50.924;5.328;2023-02-10T00:26:12;4.40;99.90
18541;DHT22;9400;50.924;5.328;2023-02-10T00:28:41;4.20;99.90
18541;DHT22;9400;50.924;5.328;2023-02-10T00:31:12;4.00;99.90
18541;DHT22;9400;50.924;5.328;2023-02-10T00:33:40;4.10;99.90
18541;DHT22;9400;50.924;5.328;2023-02-10T00:36:09;4.00;99.90
18541;DHT22;9400;50.924;5.328;2023-02-10T00:38:38;3.90;99.90
18541;DHT22;9400;50.924;5.328;2023-02-10T00:41:07;3.90;99.90
18541;DHT22;9400;50.924;5.328;2023-02-10T00:43:34;3.80;99.90
18541;DHT22;9400;50.924;5.328;2023-02-10T00:46:03;3.80;99.90
18541;DHT22;9400;50.924;5.328;2023-02-10T00:48:32;3.80;99.90
18541;DHT22;9400;50.924;5.328;2023-02-10T00:51:00;3.70;99.90
18541;DHT22;9400;50.924;5.328;2023-02-10T00:53:27;3.60;99.90
18541;DHT22;9400;50.924;5.328;2023-02-10T00:55:56;3.60;99.90
18541;DHT22;9400;50.924;5.328;2023-02-10T00:58:24;3.50;99.90
18541;DHT22;9400;50.924;5.328;2023-02-10T01:00:52;3.50;99.90
18541;DHT22;9400;50.924;5.328;2023-02-10T01:03:20;3.50;99.90
18541;DHT22;9400;50.924;5.328;2023-02-10T01:05:50;3.50;99.90
18541;DHT22;9400;50.924;5.328;2023-02-10T01:08:17;3.50;99.90
18541;DHT22;9400;50.924;5.328;2023-02-10T01:10:45;3.60;99.90
18541;DHT22;9400;50.924;5.328;2023-02-10T01:13:14;3.60;99.90
18541;DHT22;9400;50.924;5.328;2023-02-10T01:15:43;3.60;99.90
18541;DHT22;9400;50.924;5.328;2023-02-10T01:18:11;3.60;99.90
18541;DHT22;9400;50.924;5.328;2023-02-10T01:20:40;3.50;99.90
18541;DHT22;9400;50.924;5.328;2023-02-10T01:23:09;3.50;99.90
18541;DHT22;9400;50.924;5.328;2023-02-10T01:25:37;3.60;99.90
18541;DHT22;9400;50.924;5.328;2023-02-10T01:28:06;3.70;99.90
18541;DHT22;9400;50.924;5.328;2023-02-10T01:30:34;3.80;99.90
18541;DHT22;9400;50.924;5.328;2023-02-10T01:33:02;3.80;99.90
18541;DHT22;9400;50.924;5.328;2023-02-10T01:35:29;3.80;99.90
18541;DHT22;9400;50.924;5.328;2023-02-10T01:37:57;3.80;99.90
18541;DHT22;9400;50.924;5.328;2023-02-10T01:40:27;3.80;99.90
18541;DHT22;9400;50.924;5.328;2023-02-10T01:42:54;3.90;99.90
18541;DHT22;9400;50.924;5.328;2023-02-10T01:45:26;3.90;99.90
18541;DHT22;9400;50.924;5.328;2023-02-10T01:47:56;3.90;99.90
18541;DHT22;9400;50.924;5.328;2023-02-10T01:50:28;3.90;99.90
18541;DHT22;9400;50.924;5.328;2023-02-10T01:52:57;4.00;99.90
18541;DHT22;9400;50.924;5.328;2023-02-10T01:55:30;3.90;99.90
18541;DHT22;9400;50.924;5.328;2023-02-10T01:58:00;3.90;99.90
18541;DHT22;9400;50.924;5.328;2023-02-10T02:00:28;4.00;99.90
18541;DHT22;9400;50.924;5.328;2023-02-10T02:02:56;4.00;99.90
18541;DHT22;9400;50.924;5.328;2023-02-10T02:05:30;3.90;99.90
18541;DHT22;9400;50.924;5.328;2023-02-10T02:08:02;3.80;99.90
18541;DHT22;9400;50.924;5.328;2023-02-10T02:13:33;4.00;99.90
18541;DHT22;9400;50.924;5.328;2023-02-10T02:16:09;4.00;99.90
18541;DHT22;9400;50.924;5.328;2023-02-10T02:18:44;4.00;99.90
18541;DHT22;9400;50.924;5.328;2023-02-10T02:27:41;3.90;99.90
18541;DHT22;9400;50.924;5.328;2023-02-10T02:30:32;4.00;99.90
18541;DHT22;9400;50.924;5.328;2023-02-10T02:33:08;4.10;99.90
18541;DHT22;9400;50.924;5.328;2023-02-10T02:35:42;4.10;99.90
18541;DHT22;9400;50.924;5.328;2023-02-10T02:38:12;4.10;99.90
18541;DHT22;9400;50.924;5.328;2023-02-10T02:40:39;4.20;99.90
18541;DHT22;9400;50.924;5.328;2023-02-10T02:43:07;4.30;99.90
18541;DHT22;9400;50.924;5.328;2023-02-10T02:45:42;4.40;99.90
18541;DHT22;9400;50.924;5.328;2023-02-10T02:48:27;4.40;99.90
18541;DHT22;9400;50.924;5.328;2023-02-10T02:51:01;4.50;99.90
18541;DHT22;9400;50.924;5.328;2023-02-10T02:53:36;4.40;99.90
18541;DHT22;9400;50.924;5.328;2023-02-10T02:56:14;4.40;99.90
18541;DHT22;9400;50.924;5.328;2023-02-10T02:58:51;4.30;99.90
18541;DHT22;9400;50.924;5.328;2023-02-10T03:01:25;4.20;99.90
18541;DHT22;9400;50.924;5.328;2023-02-10T03:03:58;4.10;99.90
18541;DHT22;9400;50.924;5.328;2023-02-10T03:06:26;4.00;99.90
18541;DHT22;9400;50.924;5.328;2023-02-10T03:08:54;4.00;99.90
18541;DHT22;9400;50.924;5.328;2023-02-10T03:11:21;3.90;99.90
18541;DHT22;9400;50.924;5.328;2023-02-10T03:13:49;3.80;99.90
18541;DHT22;9400;50.924;5.328;2023-02-10T03:16:17;3.70;99.90
18541;DHT22;9400;50.924;5.328;2023-02-10T03:18:45;3.70;99.90
18541;DHT22;9400;50.924;5.328;2023-02-10T03:21:14;3.60;99.90
18541;DHT22;9400;50.924;5.328;2023-02-10T03:23:42;3.60;99.90
18541;DHT22;9400;50.924;5.328;2023-02-10T03:26:10;3.50;99.90
18541;DHT22;9400;50.924;5.328;2023-02-10T03:28:38;3.40;99.90
18541;DHT22;9400;50.924;5.328;2023-02-10T03:31:07;3.40;99.90
18541;DHT22;9400;50.924;5.328;2023-02-10T03:33:36;3.40;99.90
18541;DHT22;9400;50.924;5.328;2023-02-10T03:36:04;3.40;99.90
18541;DHT22;9400;50.924;5.328;2023-02-10T03:38:33;3.30;99.90
18541;DHT22;9400;50.924;5.328;2023-02-10T03:41:00;3.30;99.90
18541;DHT22;9400;50.924;5.328;2023-02-10T03:43:28;3.30;99.90
18541;DHT22;9400;50.924;5.328;2023-02-10T03:45:58;3.40;99.90
18541;DHT22;9400;50.924;5.328;2023-02-10T03:48:26;3.30;99.90
18541;DHT22;9400;50.924;5.328;2023-02-10T03:51:01;3.20;99.90
18541;DHT22;9400;50.924;5.328;2023-02-10T03:53:30;3.30;99.90
18541;DHT22;9400;50.924;5.328;2023-02-10T03:56:01;3.30;99.90
18541;DHT22;9400;50.924;5.328;2023-02-10T03:58:30;3.30;99.90
18541;DHT22;9400;50.924;5.328;2023-02-10T04:00:57;3.20;99.90
18541;DHT22;9400;50.924;5.328;2023-02-10T04:03:26;3.10;99.90
18541;DHT22;9400;50.924;5.328;2023-02-10T04:05:53;3.00;99.90
18541;DHT22;9400;50.924;5.328;2023-02-10T04:08:21;2.90;99.90
18541;DHT22;9400;50.924;5.328;2023-02-10T04:10:49;2.90;99.90
18541;DHT22;9400;50.924;5.328;2023-02-10T04:13:18;2.90;99.90
18541;DHT22;9400;50.924;5.328;2023-02-10T04:15:45;2.90;99.90
18541;DHT22;9400;50.924;5.328;2023-02-10T04:18:14;2.80;99.90
18541;DHT22;9400;50.924;5.328;2023-02-10T04:20:42;2.70;99.90
18541;DHT22;9400;50.924;5.328;2023-02-10T04:23:09;2.60;99.90
18541;DHT22;9400;50.924;5.328;2023-02-10T04:25:37;2.60;99.90
18541;DHT22;9400;50.924;5.328;2023-02-10T04:28:04;2.60;99.90
18541;DHT22;9400;50.924;5.328;2023-02-10T04:30:33;2.60;99.90
18541;DHT22;9400;50.924;5.328;2023-02-10T04:33:01;2.60;99.90
18541;DHT22;9400;50.924;5.328;2023-02-10T04:35:29;2.60;99.90
18541;DHT22;9400;50.924;5.328;2023-02-10T04:37:57;2.50;99.90
18541;DHT22;9400;50.924;5.328;2023-02-10T04:40:25;2.50;99.90
18541;DHT22;9400;50.924;5.328;2023-02-10T04:42:53;2.40;99.90
18541;DHT22;9400;50.924;5.328;2023-02-10T04:45:21;2.40;99.90
18541;DHT22;9400;50.924;5.328;2023-02-10T04:47:50;2.30;99.90
18541;DHT22;9400;50.924;5.328;2023-02-10T04:50:17;2.30;99.90
18541;DHT22;9400;50.924;5.328;2023-02-10T04:52:45;2.20;99.90
18541;DHT22;9400;50.924;5.328;2023-02-10T04:55:12;2.10;99.90
18541;DHT22;9400;50.924;5.328;2023-02-10T04:57:40;2.10;99.90
18541;DHT22;9400;50.924;5.328;2023-02-10T05:00:09;2.10;99.90
18541;DHT22;9400;50.924;5.328;2023-02-10T05:02:36;2.10;99.90
18541;DHT22;9400;50.924;5.328;2023-02-10T05:05:06;2.10;99.90
18541;DHT22;9400;50.924;5.328;2023-02-10T05:07:34;2.10;99.90
18541;DHT22;9400;50.924;5.328;2023-02-10T05:10:02;2.00;99.90
18541;DHT22;9400;50.924;5.328;2023-02-10T05:12:29;1.90;99.90
18541;DHT22;9400;50.924;5.328;2023-02-10T05:14:57;2.00;99.90
18541;DHT22;9400;50.924;5.328;2023-02-10T05:17:24;2.00;99.90
18541;DHT22;9400;50.924;5.328;2023-02-10T05:19:52;2.00;99.90
18541;DHT22;9400;50.924;5.328;2023-02-10T05:22:21;2.00;99.90
18541;DHT22;9400;50.924;5.328;2023-02-10T05:24:55;2.00;99.90
18541;DHT22;9400;50.924;5.328;2023-02-10T05:27:23;2.00;99.90
18541;DHT22;9400;50.924;5.328;2023-02-10T05:29:51;2.00;99.90
18541;DHT22;9400;50.924;5.328;2023-02-10T05:32:19;2.00;99.90
18541;DHT22;9400;50.924;5.328;2023-02-10T05:34:46;2.00;99.90
18541;DHT22;9400;50.924;5.328;2023-02-10T05:37:14;2.10;99.90
18541;DHT22;9400;50.924;5.328;2023-02-10T05:39:44;2.10;99.90
18541;DHT22;9400;50.924;5.328;2023-02-10T05:42:12;1.90;99.90
18541;DHT22;9400;50.924;5.328;2023-02-10T05:44:40;1.90;99.90
18541;DHT22;9400;50.924;5.328;2023-02-10T05:47:08;2.00;99.90
18541;DHT22;9400;50.924;5.328;2023-02-10T05:49:37;1.90;99.90
18541;DHT22;9400;50.924;5.328;2023-02-10T05:52:04;1.90;99.90
18541;DHT22;9400;50.924;5.328;2023-02-10T05:54:32;1.90;99.90
18541;DHT22;9400;50.924;5.328;2023-02-10T05:57:03;1.90;99.90
18541;DHT22;9400;50.924;5.328;2023-02-10T05:59:30;1.90;99.90
18541;DHT22;9400;50.924;5.328;2023-02-10T06:01:59;1.90;99.90
18541;DHT22;9400;50.924;5.328;2023-02-10T06:04:27;1.90;99.90
18541;DHT22;9400;50.924;5.328;2023-02-10T06:06:55;1.90;99.90
18541;DHT22;9400;50.924;5.328;2023-02-10T06:09:23;1.90;99.90
18541;DHT22;9400;50.924;5.328;2023-02-10T06:11:52;1.80;99.90
18541;DHT22;9400;50.924;5.328;2023-02-10T06:14:22;1.80;99.90
18541;DHT22;9400;50.924;5.328;2023-02-10T06:16:50;1.80;99.90
18541;DHT22;9400;50.924;5.328;2023-02-10T06:19:17;1.70;99.90
18541;DHT22;9400;50.924;5.328;2023-02-10T06:21:45;1.70;99.90
18541;DHT22;9400;50.924;5.328;2023-02-10T06:24:12;1.70;99.90
18541;DHT22;9400;50.924;5.328;2023-02-10T06:26:40;1.70;99.90
18541;DHT22;9400;50.924;5.328;2023-02-10T06:29:07;1.70;99.90
18541;DHT22;9400;50.924;5.328;2023-02-10T06:31:37;1.70;99.90
18541;DHT22;9400;50.924;5.328;2023-02-10T06:34:04;1.60;99.90
18541;DHT22;9400;50.924;5.328;2023-02-10T06:36:34;1.60;99.90
18541;DHT22;9400;50.924;5.328;2023-02-10T06:39:02;1.60;99.90
18541;DHT22;9400;50.924;5.328;2023-02-10T06:41:29;1.60;99.90
18541;DHT22;9400;50.924;5.328;2023-02-10T06:43:57;1.50;99.90
18541;DHT22;9400;50.924;5.328;2023-02-10T06:46:25;1.50;99.90
18541;DHT22;9400;50.924;5.328;2023-02-10T06:48:54;1.50;99.90
18541;DHT22;9400;50.924;5.328;2023-02-10T06:51:22;1.50;99.90
18541;DHT22;9400;50.924;5.328;2023-02-10T06:53:49;1.50;99.90
18541;DHT22;9400;50.924;5.328;2023-02-10T06:56:17;1.50;99.90
18541;DHT22;9400;50.924;5.328;2023-02-10T06:58:45;1.40;99.90
18541;DHT22;9400;50.924;5.328;2023-02-10T07:01:15;1.50;99.90
18541;DHT22;9400;50.924;5.328;2023-02-10T07:03:43;1.50;99.90
18541;DHT22;9400;50.924;5.328;2023-02-10T07:06:12;1.50;99.90
18541;DHT22;9400;50.924;5.328;2023-02-10T07:08:39;1.60;99.90
18541;DHT22;9400;50.924;5.328;2023-02-10T07:11:07;1.50;99.90
18541;DHT22;9400;50.924;5.328;2023-02-10T07:13:34;1.60;99.90
18541;DHT22;9400;50.924;5.328;2023-02-10T07:16:02;1.60;99.90
18541;DHT22;9400;50.924;5.328;2023-02-10T07:18:30;1.60;99.90
18541;DHT22;9400;50.924;5.328;2023-02-10T07:20:57;1.60;99.90
18541;DHT22;9400;50.924;5.328;2023-02-10T07:23:26;1.70;99.90
18541;DHT22;9400;50.924;5.328;2023-02-10T07:25:54;1.80;99.90
18541;DHT22;9400;50.924;5.328;2023-02-10T07:28:25;1.80;99.90
18541;DHT22;9400;50.924;5.328;2023-02-10T07:30:53;1.80;99.90
18541;DHT22;9400;50.924;5.328;2023-02-10T07:33:20;1.90;99.90
18541;DHT22;9400;50.924;5.328;2023-02-10T07:35:48;2.00;99.90
18541;DHT22;9400;50.924;5.328;2023-02-10T07:38:15;2.00;99.90
18541;DHT22;9400;50.924;5.328;2023-02-10T07:40:45;2.00;99.90
18541;DHT22;9400;50.924;5.328;2023-02-10T07:43:13;2.10;99.90
18541;DHT22;9400;50.924;5.328;2023-02-10T07:45:40;2.10;99.90
18541;DHT22;9400;50.924;5.328;2023-02-10T07:48:08;2.20;99.90
18541;DHT22;9400;50.924;5.328;2023-02-10T07:50:36;2.10;99.90
18541;DHT22;9400;50.924;5.328;2023-02-10T07:53:04;2.20;99.90
18541;DHT22;9400;50.924;5.328;2023-02-10T07:55:32;2.20;99.90
18541;DHT22;9400;50.924;5.328;2023-02-10T07:58:01;2.20;99.90
18541;DHT22;9400;50.924;5.328;2023-02-10T08:00:29;2.30;99.90
18541;DHT22;9400;50.924;5.328;2023-02-10T08:02:56;2.30;99.90
18541;DHT22;9400;50.924;5.328;2023-02-10T08:05:24;2.40;99.90
18541;DHT22;9400;50.924;5.328;2023-02-10T08:07:52;2.40;99.90
18541;DHT22;9400;50.924;5.328;2023-02-10T08:10:20;2.50;99.90
18541;DHT22;9400;50.924;5.328;2023-02-10T08:12:47;2.60;99.90
18541;DHT22;9400;50.924;5.328;2023-02-10T08:15:16;2.70;99.90
18541;DHT22;9400;50.924;5.328;2023-02-10T08:17:44;2.80;99.90
18541;DHT22;9400;50.924;5.328;2023-02-10T08:20:12;2.80;99.90
18541;DHT22;9400;50.924;5.328;2023-02-10T08:22:40;2.90;99.90
18541;DHT22;9400;50.924;5.328;2023-02-10T08:25:08;2.90;99.90
18541;DHT22;9400;50.924;5.328;2023-02-10T08:27:36;2.90;99.90
18541;DHT22;9400;50.924;5.328;2023-02-10T08:30:04;2.90;99.90
18541;DHT22;9400;50.924;5.328;2023-02-10T08:32:34;3.00;99.90
18541;DHT22;9400;50.924;5.328;2023-02-10T08:35:02;3.00;99.90
18541;DHT22;9400;50.924;5.328;2023-02-10T08:37:29;3.10;99.90
18541;DHT22;9400;50.924;5.328;2023-02-10T08:39:57;3.00;99.90
18541;DHT22;9400;50.924;5.328;2023-02-10T08:42:25;3.10;99.90
18541;DHT22;9400;50.924;5.328;2023-02-10T08:44:53;3.20;99.90
18541;DHT22;9400;50.924;5.328;2023-02-10T08:47:20;3.10;99.90
18541;DHT22;9400;50.924;5.328;2023-02-10T08:49:49;3.10;99.90
18541;DHT22;9400;50.924;5.328;2023-02-10T08:52:18;3.00;99.90
18541;DHT22;9400;50.924;5.328;2023-02-10T08:54:47;3.10;99.90
18541;DHT22;9400;50.924;5.328;2023-02-10T08:57:14;3.10;99.90
18541;DHT22;9400;50.924;5.328;2023-02-10T08:59:42;3.20;99.90
18541;DHT22;9400;50.924;5.328;2023-02-10T09:02:10;3.30;99.90
18541;DHT22;9400;50.924;5.328;2023-02-10T09:04:38;3.40;99.90
18541;DHT22;9400;50.924;5.328;2023-02-10T09:07:07;3.50;99.90
18541;DHT22;9400;50.924;5.328;2023-02-10T09:09:38;3.60;99.90
18541;DHT22;9400;50.924;5.328;2023-02-10T09:12:06;3.70;99.90
18541;DHT22;9400;50.924;5.328;2023-02-10T09:14:36;3.90;99.90
18541;DHT22;9400;50.924;5.328;2023-02-10T09:17:04;4.00;99.90
18541;DHT22;9400;50.924;5.328;2023-02-10T09:19:34;4.10;99.90
18541;DHT22;9400;50.924;5.328;2023-02-10T09:22:01;4.10;99.90
18541;DHT22;9400;50.924;5.328;2023-02-10T09:24:31;4.20;99.90
18541;DHT22;9400;50.924;5.328;2023-02-10T09:26:59;4.30;99.90
18541;DHT22;9400;50.924;5.328;2023-02-10T09:29:27;4.30;99.90
18541;DHT22;9400;50.924;5.328;2023-02-10T09:31:55;4.40;99.90
18541;DHT22;9400;50.924;5.328;2023-02-10T09:34:23;4.40;99.90
18541;DHT22;9400;50.924;5.328;2023-02-10T09:36:50;4.50;99.90
18541;DHT22;9400;50.924;5.328;2023-02-10T09:39:23;4.50;99.90
18541;DHT22;9400;50.924;5.328;2023-02-10T09:41:57;4.60;99.90
18541;DHT22;9400;50.924;5.328;2023-02-10T09:44:33;4.70;99.90
18541;DHT22;9400;50.924;5.328;2023-02-10T09:47:23;4.80;99.90
18541;DHT22;9400;50.924;5.328;2023-02-10T09:50:15;4.90;99.90
18541;DHT22;9400;50.924;5.328;2023-02-10T09:52:58;5.00;99.90
18541;DHT22;9400;50.924;5.328;2023-02-10T09:55:30;4.80;99.90
18541;DHT22;9400;50.924;5.328;2023-02-10T09:58:02;4.70;99.90
18541;DHT22;9400;50.924;5.328;2023-02-10T10:00:35;4.70;99.90
18541;DHT22;9400;50.924;5.328;2023-02-10T10:03:06;4.80;99.90
18541;DHT22;9400;50.924;5.328;2023-02-10T10:05:44;4.90;99.90
18541;DHT22;9400;50.924;5.328;2023-02-10T10:08:18;5.00;99.90
18541;DHT22;9400;50.924;5.328;2023-02-10T10:10:48;5.10;99.90
18541;DHT22;9400;50.924;5.328;2023-02-10T10:13:24;5.30;99.90
18541;DHT22;9400;50.924;5.328;2023-02-10T10:16:12;5.40;99.90
18541;DHT22;9400;50.924;5.328;2023-02-10T10:18:48;5.50;99.90
18541;DHT22;9400;50.924;5.328;2023-02-10T10:21:26;5.70;99.90
18541;DHT22;9400;50.924;5.328;2023-02-10T10:24:06;5.80;99.90
18541;DHT22;9400;50.924;5.328;2023-02-10T10:26:48;5.90;99.90
18541;DHT22;9400;50.924;5.328;2023-02-10T10:29:27;6.00;99.90
18541;DHT22;9400;50.924;5.328;2023-02-10T10:32:04;6.10;99.90
18541;DHT22;9400;50.924;5.328;2023-02-10T10:34:39;6.10;99.90
18541;DHT22;9400;50.924;5.328;2023-02-10T10:37:15;6.20;99.90
18541;DHT22;9400;50.924;5.328;2023-02-10T10:39:46;6.30;99.90
18541;DHT22;9400;50.924;5.328;2023-02-10T10:42:22;6.30;99.90
18541;DHT22;9400;50.924;5.328;2023-02-10T10:44:58;6.50;99.90
18541;DHT22;9400;50.924;5.328;2023-02-10T10:47:38;6.70;99.90
18541;DHT22;9400;50.924;5.328;2023-02-10T10:50:12;6.90;99.90
18541;DHT22;9400;50.924;5.328;2023-02-10T10:52:41;7.00;99.90
18541;DHT22;9400;50.924;5.328;2023-02-10T10:55:14;7.10;99.90
18541;DHT22;9400;50.924;5.328;2023-02-10T10:57:43;7.10;99.90
18541;DHT22;9400;50.924;5.328;2023-02-10T11:00:20;7.10;99.90
18541;DHT22;9400;50.924;5.328;2023-02-10T11:02:53;7.10;99.90
18541;DHT22;9400;50.924;5.328;2023-02-10T11:05:21;7.20;99.90
18541;DHT22;9400;50.924;5.328;2023-02-10T11:07:50;7.40;99.90
18541;DHT22;9400;50.924;5.328;2023-02-10T11:10:22;7.50;99.90
18541;DHT22;9400;50.924;5.328;2023-02-10T11:12:51;7.70;99.90
18541;DHT22;9400;50.924;5.328;2023-02-10T11:15:37;7.80;99.90
18541;DHT22;9400;50.924;5.328;2023-02-10T11:18:07;7.80;99.90
18541;DHT22;9400;50.924;5.328;2023-02-10T11:20:50;7.90;99.90
18541;DHT22;9400;50.924;5.328;2023-02-10T11:23:19;7.90;99.90
18541;DHT22;9400;50.924;5.328;2023-02-10T11:25:54;8.20;99.90
18541;DHT22;9400;50.924;5.328;2023-02-10T11:28:25;8.50;99.90
18541;DHT22;9400;50.924;5.328;2023-02-10T11:31:02;8.50;99.90
18541;DHT22;9400;50.924;5.328;2023-02-10T11:33:32;8.40;99.90
18541;DHT22;9400;50.924;5.328;2023-02-10T11:36:04;8.60;99.90
18541;DHT22;9400;50.924;5.328;2023-02-10T11:38:33;8.50;99.90
18541;DHT22;9400;50.924;5.328;2023-02-10T11:41:04;8.60;99.90
18541;DHT22;9400;50.924;5.328;2023-02-10T11:43:37;8.70;99.90
18541;DHT22;9400;50.924;5.328;2023-02-10T11:46:19;8.70;99.90
18541;DHT22;9400;50.924;5.328;2023-02-10T11:48:53;8.70;99.90
18541;DHT22;9400;50.924;5.328;2023-02-10T11:51:21;8.80;99.90
18541;DHT22;9400;50.924;5.328;2023-02-10T11:53:49;8.90;99.90
18541;DHT22;9400;50.924;5.328;2023-02-10T11:56:20;9.00;99.90
18541;DHT22;9400;50.924;5.328;2023-02-10T11:59:22;9.10;99.90
18541;DHT22;9400;50.924;5.328;2023-02-10T12:01:56;8.90;99.90
18541;DHT22;9400;50.924;5.328;2023-02-10T12:05:07;9.00;99.90
18541;DHT22;9400;50.924;5.328;2023-02-10T12:07:46;9.20;99.90
18541;DHT22;9400;50.924;5.328;2023-02-10T12:10:23;9.30;99.90
18541;DHT22;9400;50.924;5.328;2023-02-10T12:12:57;9.40;99.90
18541;DHT22;9400;50.924;5.328;2023-02-10T12:15:37;9.60;99.90
18541;DHT22;9400;50.924;5.328;2023-02-10T12:18:17;9.50;99.90
18541;DHT22;9400;50.924;5.328;2023-02-10T12:20:56;9.80;99.90
18541;DHT22;9400;50.924;5.328;2023-02-10T12:23:48;10.10;99.90
18541;DHT22;9400;50.924;5.328;2023-02-10T12:26:24;10.10;99.90
18541;DHT22;9400;50.924;5.328;2023-02-10T12:29:05;10.10;99.90
18541;DHT22;9400;50.924;5.328;2023-02-10T12:31:45;10.20;99.90
18541;DHT22;9400;50.924;5.328;2023-02-10T12:34:27;10.10;99.90
18541;DHT22;9400;50.924;5.328;2023-02-10T12:37:06;10.20;99.90
18541;DHT22;9400;50.924;5.328;2023-02-10T12:39:43;10.30;99.90
18541;DHT22;9400;50.924;5.328;2023-02-10T12:42:30;10.30;99.90
18541;DHT22;9400;50.924;5.328;2023-02-10T12:45:11;10.60;99.90
18541;DHT22;9400;50.924;5.328;2023-02-10T12:47:46;10.60;99.90
18541;DHT22;9400;50.924;5.328;2023-02-10T12:50:43;10.60;99.90
18541;DHT22;9400;50.924;5.328;2023-02-10T12:53:18;11.20;99.90
18541;DHT22;9400;50.924;5.328;2023-02-10T12:55:52;11.90;99.90
18541;DHT22;9400;50.924;5.328;2023-02-10T12:58:25;12.50;99.90
18541;DHT22;9400;50.924;5.328;2023-02-10T13:01:04;12.30;99.90
18541;DHT22;9400;50.924;5.328;2023-02-10T13:03:36;12.40;99.90
18541;DHT22;9400;50.924;5.328;2023-02-10T13:06:19;12.20;99.90
18541;DHT22;9400;50.924;5.328;2023-02-10T13:08:51;12.20;99.90
18541;DHT22;9400;50.924;5.328;2023-02-10T13:11:29;11.50;99.90
18541;DHT22;9400;50.924;5.328;2023-02-10T13:14:00;11.20;99.90
18541;DHT22;9400;50.924;5.328;2023-02-10T13:16:32;11.30;99.90
18541;DHT22;9400;50.924;5.328;2023-02-10T13:19:07;12.50;99.90
18541;DHT22;9400;50.924;5.328;2023-02-10T13:21:47;13.30;99.90
18541;DHT22;9400;50.924;5.328;2023-02-10T13:24:20;13.60;99.90
18541;DHT22;9400;50.924;5.328;2023-02-10T13:26:57;13.50;99.90
18541;DHT22;9400;50.924;5.328;2023-02-10T13:29:35;14.00;99.90
18541;DHT22;9400;50.924;5.328;2023-02-10T13:32:30;13.40;99.90
18541;DHT22;9400;50.924;5.328;2023-02-10T13:35:01;13.10;99.90
18541;DHT22;9400;50.924;5.328;2023-02-10T13:37:40;13.60;99.90
18541;DHT22;9400;50.924;5.328;2023-02-10T13:40:16;13.40;99.90
18541;DHT22;9400;50.924;5.328;2023-02-10T13:42:50;12.30;99.90
18541;DHT22;9400;50.924;5.328;2023-02-10T13:45:20;11.90;99.90
18541;DHT22;9400;50.924;5.328;2023-02-10T13:47:51;12.90;99.90
18541;DHT22;9400;50.924;5.328;2023-02-10T13:50:23;13.40;99.90
18541;DHT22;9400;50.924;5.328;2023-02-10T13:52:55;13.60;99.90
18541;DHT22;9400;50.924;5.328;2023-02-10T13:55:40;13.30;99.90
18541;DHT22;9400;50.924;5.328;2023-02-10T13:58:26;12.50;99.90
18541;DHT22;9400;50.924;5.328;2023-02-10T14:00:55;12.10;99.90
18541;DHT22;9400;50.924;5.328;2023-02-10T14:03:24;11.40;99.90
18541;DHT22;9400;50.924;5.328;2023-02-10T14:05:55;10.80;99.90
18541;DHT22;9400;50.924;5.328;2023-02-10T14:08:31;10.30;99.90
18541;DHT22;9400;50.924;5.328;2023-02-10T14:11:03;10.00;99.90
18541;DHT22;9400;50.924;5.328;2023-02-10T14:13:32;9.90;99.90
18541;DHT22;9400;50.924;5.328;2023-02-10T14:16:03;9.90;99.90
18541;DHT22;9400;50.924;5.328;2023-02-10T14:18:32;9.90;99.90
18541;DHT22;9400;50.924;5.328;2023-02-10T14:21:03;10.00;99.90
18541;DHT22;9400;50.924;5.328;2023-02-10T14:23:38;10.20;99.90
18541;DHT22;9400;50.924;5.328;2023-02-10T14:26:07;10.10;99.90
18541;DHT22;9400;50.924;5.328;2023-02-10T14:28:39;10.00;99.90
18541;DHT22;9400;50.924;5.328;2023-02-10T14:31:13;9.90;99.90
18541;DHT22;9400;50.924;5.328;2023-02-10T14:33:52;9.90;99.90
18541;DHT22;9400;50.924;5.328;2023-02-10T14:36:20;9.90;99.90
18541;DHT22;9400;50.924;5.328;2023-02-10T14:38:52;10.00;99.90
18541;DHT22;9400;50.924;5.328;2023-02-10T14:41:21;10.30;99.90
18541;DHT22;9400;50.924;5.328;2023-02-10T14:43:50;10.40;99.90
18541;DHT22;9400;50.924;5.328;2023-02-10T14:46:21;10.30;99.90
18541;DHT22;9400;50.924;5.328;2023-02-10T14:48:50;9.80;99.90
18541;DHT22;9400;50.924;5.328;2023-02-10T14:51:21;9.60;99.90
18541;DHT22;9400;50.924;5.328;2023-02-10T14:53:51;9.50;99.90
18541;DHT22;9400;50.924;5.328;2023-02-10T14:56:22;9.40;99.90
18541;DHT22;9400;50.924;5.328;2023-02-10T14:58:49;9.50;99.90
18541;DHT22;9400;50.924;5.328;2023-02-10T15:01:24;9.50;99.90
18541;DHT22;9400;50.924;5.328;2023-02-10T15:03:53;9.30;99.90
18541;DHT22;9400;50.924;5.328;2023-02-10T15:06:23;9.10;99.90
18541;DHT22;9400;50.924;5.328;2023-02-10T15:08:55;9.00;99.90
18541;DHT22;9400;50.924;5.328;2023-02-10T15:11:27;8.90;99.90
18541;DHT22;9400;50.924;5.328;2023-02-10T15:14:15;8.90;99.90
18541;DHT22;9400;50.924;5.328;2023-02-10T15:16:45;8.90;99.90
18541;DHT22;9400;50.924;5.328;2023-02-10T15:19:16;9.00;99.90
18541;DHT22;9400;50.924;5.328;2023-02-10T15:21:45;9.10;99.90
18541;DHT22;9400;50.924;5.328;2023-02-10T15:24:25;9.20;99.90
18541;DHT22;9400;50.924;5.328;2023-02-10T15:26:53;9.20;99.90
18541;DHT22;9400;50.924;5.328;2023-02-10T15:29:21;9.10;99.90
18541;DHT22;9400;50.924;5.328;2023-02-10T15:31:56;9.10;99.90
18541;DHT22;9400;50.924;5.328;2023-02-10T15:34:26;9.10;99.90
18541;DHT22;9400;50.924;5.328;2023-02-10T15:36:59;9.20;99.90
18541;DHT22;9400;50.924;5.328;2023-02-10T15:39:32;9.20;99.90
18541;DHT22;9400;50.924;5.328;2023-02-10T15:42:04;9.00;99.90
18541;DHT22;9400;50.924;5.328;2023-02-10T15:44:34;8.80;99.90
18541;DHT22;9400;50.924;5.328;2023-02-10T15:47:22;8.70;99.90
18541;DHT22;9400;50.924;5.328;2023-02-10T15:49:56;8.60;99.90
18541;DHT22;9400;50.924;5.328;2023-02-10T15:52:28;8.60;99.90
18541;DHT22;9400;50.924;5.328;2023-02-10T15:55:00;8.50;99.90
18541;DHT22;9400;50.924;5.328;2023-02-10T15:57:29;8.50;99.90
18541;DHT22;9400;50.924;5.328;2023-02-10T15:59:57;8.40;99.90
18541;DHT22;9400;50.924;5.328;2023-02-10T16:02:24;8.30;99.90
18541;DHT22;9400;50.924;5.328;2023-02-10T16:04:56;8.40;99.90
18541;DHT22;9400;50.924;5.328;2023-02-10T16:07:25;8.40;99.90
18541;DHT22;9400;50.924;5.328;2023-02-10T16:09:54;8.60;99.90
18541;DHT22;9400;50.924;5.328;2023-02-10T16:12:24;8.70;99.90
18541;DHT22;9400;50.924;5.328;2023-02-10T16:14:52;8.60;99.90
18541;DHT22;9400;50.924;5.328;2023-02-10T16:17:23;8.50;99.90
18541;DHT22;9400;50.924;5.328;2023-02-10T16:19:52;8.70;99.90
18541;DHT22;9400;50.924;5.328;2023-02-10T16:22:19;8.70;99.90
18541;DHT22;9400;50.924;5.328;2023-02-10T16:24:47;8.50;99.90
18541;DHT22;9400;50.924;5.328;2023-02-10T16:27:15;8.40;99.90
18541;DHT22;9400;50.924;5.328;2023-02-10T16:29:44;8.20;99.90
18541;DHT22;9400;50.924;5.328;2023-02-10T16:32:13;8.30;99.90
18541;DHT22;9400;50.924;5.328;2023-02-10T16:34:40;8.20;99.90